Pamplin, Virginia
Current Conditions -  °F | °C
As of 2:35 PM on Saturday 25 Oct 2014 (Local Time) from KFVX Reporting Station
Clear Clear  
Wind Chill: 70°   Ceiling: Unl
Heat Index: 70°   Visibility: 10mi
Dew Point: 36°   Wind: 8mph
Humidity: 28%   Direction: 230°SW
Pressure: 29.88"   Gusts: 16mph
Location:  37.26°N, 78.68°W
Report Text: KFVX 251835Z AUTO 23007G14KT 10SM CLR 21/02 A2988 RMK AO2
Loading
Personal Weather Stations






























Interactive Weather Map
Tropical Storm Tracking
New forecast layout! Learn more

10-Day Weather Forecast

Advertisements
Track Severe Weather on mobile